Time;durP1;ratioP1;P1;durP2;ratioP2;P2;SDS_P1;SDS_P2;PMS_P1;PMS_P2;Temp;Humidity;BMP_temperature;BMP_pressure;BME280_temperature;BME280_humidity;BME280_pressure;Samples;Min_cycle;Max_cycle;Signal;HPM_P1;HPM_P2
2023/05/06 00:01:21;;;;;;;13.98;11.63;;;;;;;12.36;100.00;100908.81;4940108;29;20926;-81
2023/05/06 00:03:48;;;;;;;11.32;9.85;;;;;;;12.34;100.00;100902.69;4938945;29;20043;-84
2023/05/06 00:06:14;;;;;;;14.90;13.20;;;;;;;12.31;100.00;100905.38;4924356;28;20106;-83
2023/05/06 00:08:41;;;;;;;15.32;13.23;;;;;;;12.31;100.00;100904.50;4923758;28;20047;-84
2023/05/06 00:11:07;;;;;;;15.23;12.73;;;;;;;12.27;100.00;100897.53;4940030;28;20139;-81
2023/05/06 00:13:34;;;;;;;19.60;14.75;;;;;;;12.25;100.00;100905.44;4948494;28;20047;-82
2023/05/06 00:16:00;;;;;;;18.63;15.45;;;;;;;12.20;100.00;100896.75;4927409;29;20058;-92
2023/05/06 00:18:27;;;;;;;17.77;13.85;;;;;;;12.20;100.00;100897.63;4938732;28;20039;-89
2023/05/06 00:20:54;;;;;;;20.25;13.13;;;;;;;12.18;100.00;100898.53;4935796;29;20056;-85
2023/05/06 00:23:20;;;;;;;17.52;14.93;;;;;;;12.15;100.00;100891.56;4921307;29;20205;-82
2023/05/06 00:25:47;;;;;;;16.63;13.50;;;;;;;12.14;100.00;100897.69;4917808;29;20040;-87
2023/05/06 00:28:13;;;;;;;18.55;15.18;;;;;;;12.15;100.00;100894.19;4940080;29;20458;-87
2023/05/06 00:30:40;;;;;;;16.42;12.73;;;;;;;12.15;100.00;100890.69;4919699;29;20070;-81
2023/05/06 00:33:06;;;;;;;20.83;14.85;;;;;;;12.14;100.00;100902.09;4933405;29;20104;-84
2023/05/06 00:35:33;;;;;;;26.58;16.42;;;;;;;12.08;100.00;100898.66;4920642;29;20047;-88
2023/05/06 00:38:11;;;;;;;17.20;13.90;;;;;;;12.08;100.00;100903.00;4945023;29;20055;-84
2023/05/06 00:40:38;;;;;;;17.52;14.23;;;;;;;12.08;100.00;100905.63;4915606;29;20107;-82
2023/05/06 00:43:05;;;;;;;16.83;12.68;;;;;;;12.09;100.00;100910.00;4914967;29;20040;-81
2023/05/06 00:45:33;;;;;;;18.30;14.48;;;;;;;12.08;100.00;100908.25;4904727;29;20079;-82
2023/05/06 00:47:59;;;;;;;15.68;12.93;;;;;;;12.07;100.00;100909.13;4898929;29;20468;-82
2023/05/06 00:50:28;;;;;;;19.98;14.32;;;;;;;12.04;100.00;100912.66;4935733;29;20079;-84
2023/05/06 00:52:58;;;;;;;16.23;13.77;;;;;;;12.04;100.00;100912.66;4918541;29;20131;-82
2023/05/06 00:55:26;;;;;;;17.20;13.40;;;;;;;12.04;100.00;100912.66;4905925;29;20395;-82
2023/05/06 00:57:53;;;;;;;16.33;12.68;;;;;;;12.03;100.00;100910.94;4919626;29;20098;-82
2023/05/06 01:00:20;;;;;;;16.25;13.90;;;;;;;12.03;100.00;100917.94;4922614;29;20394;-83
2023/05/06 01:02:49;;;;;;;19.98;14.88;;;;;;;12.01;100.00;100912.69;4920971;29;20040;-81
2023/05/06 01:05:19;;;;;;;18.10;15.05;;;;;;;12.01;100.00;100914.47;4928563;29;20491;-84
2023/05/06 01:08:21;;;;;;;18.85;14.48;;;;;;;11.96;100.00;100900.53;4913475;29;20052;-82
2023/05/06 01:11:07;;;;;;;17.20;13.10;;;;;;;11.96;100.00;100900.53;4920639;29;20051;-82
2023/05/06 01:13:45;;;;;;;17.60;14.27;;;;;;;11.97;100.00;100904.88;4918744;29;20067;-81
2023/05/06 01:16:14;;;;;;;13.77;12.02;;;;;;;11.96;100.00;100911.88;4917533;29;20051;-82
2023/05/06 01:18:43;;;;;;;19.33;14.93;;;;;;;11.92;100.00;100905.75;4918659;29;20058;-88
2023/05/06 01:21:11;;;;;;;21.50;15.55;;;;;;;11.88;100.00;100906.69;4953242;28;20051;-84
2023/05/06 01:23:56;;;;;;;15.63;12.65;;;;;;;11.89;100.00;100899.69;4930175;28;20048;-85
2023/05/06 01:26:24;;;;;;;16.20;13.40;;;;;;;11.87;100.00;100912.81;4936588;28;20074;-81
2023/05/06 01:28:51;;;;;;;13.50;12.10;;;;;;;11.83;100.00;100907.63;4934489;29;20044;-81
2023/05/06 01:31:26;;;;;;;14.70;12.57;;;;;;;11.82;100.00;100905.88;4924446;28;20051;-84
2023/05/06 01:34:15;;;;;;;15.43;11.48;;;;;;;11.75;100.00;100912.94;4919010;28;20054;-81
2023/05/06 01:36:59;;;;;;;16.75;11.98;;;;;;;11.58;100.00;100913.09;4934154;29;20122;-84
2023/05/06 01:39:30;;;;;;;13.48;11.52;;;;;;;11.39;100.00;100907.13;4943498;28;20047;-81
2023/05/06 01:41:58;;;;;;;16.15;11.57;;;;;;;11.19;100.00;100915.16;4934807;29;20482;-81
2023/05/06 01:44:27;;;;;;;13.40;11.07;;;;;;;11.04;100.00;100914.41;4921185;28;20047;-88
2023/05/06 01:46:56;;;;;;;16.80;13.05;;;;;;;10.89;100.00;100915.34;4935519;28;20046;-82
2023/05/06 01:49:24;;;;;;;17.83;13.63;;;;;;;10.79;100.00;100916.28;4933798;28;20055;-86
2023/05/06 01:51:52;;;;;;;16.45;14.05;;;;;;;10.72;100.00;100917.19;4934648;29;20075;-82
2023/05/06 01:54:18;;;;;;;16.85;13.23;;;;;;;10.62;100.00;100910.28;4949791;28;20060;-86
2023/05/06 01:56:45;;;;;;;15.45;12.73;;;;;;;10.52;100.00;100907.69;4959934;28;20094;-82
2023/05/06 01:59:12;;;;;;;18.88;14.15;;;;;;;10.48;100.00;100912.94;4930205;28;20409;-83
2023/05/06 02:01:38;;;;;;;18.88;14.23;;;;;;;10.44;100.00;100912.06;4935238;28;20051;-84
2023/05/06 02:04:05;;;;;;;16.13;12.48;;;;;;;10.40;100.00;100912.97;4938184;28;20052;-90
2023/05/06 02:06:32;;;;;;;15.82;12.43;;;;;;;10.37;100.00;100915.63;4944852;28;20042;-85
2023/05/06 02:08:58;;;;;;;14.07;10.93;;;;;;;10.33;100.00;100909.47;4947037;28;20134;-84
2023/05/06 02:11:25;;;;;;;12.10;10.80;;;;;;;10.29;100.00;100902.53;4941191;28;20059;-87
2023/05/06 02:13:51;;;;;;;10.10;8.60;;;;;;;10.25;100.00;100906.03;4935680;28;20506;-82
2023/05/06 02:16:19;;;;;;;10.52;9.18;;;;;;;10.23;100.00;100911.28;4920254;28;20070;-82
2023/05/06 02:18:45;;;;;;;11.02;8.63;;;;;;;10.20;100.00;100906.03;4940527;28;20074;-82
2023/05/06 02:21:12;;;;;;;10.40;8.82;;;;;;;10.17;100.00;100900.81;4953067;28;20086;-86
2023/05/06 02:23:38;;;;;;;8.90;8.00;;;;;;;10.15;100.00;100902.56;4934194;28;20057;-87
2023/05/06 02:26:05;;;;;;;9.70;7.43;;;;;;;10.12;100.00;100902.59;4952090;28;20118;-82
2023/05/06 02:28:31;;;;;;;7.43;6.28;;;;;;;10.10;100.00;100905.22;4920477;28;20082;-87
2023/05/06 02:30:58;;;;;;;7.55;6.20;;;;;;;10.06;100.00;100900.88;4930242;29;20051;-83
2023/05/06 02:33:25;;;;;;;8.07;7.28;;;;;;;10.03;100.00;100905.22;4928917;29;20043;-85
2023/05/06 02:35:52;;;;;;;9.68;8.45;;;;;;;9.98;100.00;100909.59;4939714;28;20493;-85
2023/05/06 02:38:19;;;;;;;8.10;7.30;;;;;;;9.98;100.00;100913.06;4926613;28;20066;-88
2023/05/06 02:40:45;;;;;;;8.35;7.50;;;;;;;9.97;100.00;100910.47;4938707;28;20050;-85
2023/05/06 02:43:12;;;;;;;10.25;8.52;;;;;;;9.94;100.00;100909.59;4920602;28;20043;-81
2023/05/06 02:45:38;;;;;;;8.50;7.45;;;;;;;9.93;100.00;100907.88;4938583;28;20049;-82
2023/05/06 02:48:05;;;;;;;8.60;7.10;;;;;;;9.95;100.00;100910.47;4942287;29;20051;-81
2023/05/06 02:50:32;;;;;;;12.27;8.63;;;;;;;9.98;100.00;100910.47;4950547;28;20101;-82
2023/05/06 02:52:58;;;;;;;10.60;8.07;;;;;;;9.98;100.00;100912.22;4923983;29;20051;-82
2023/05/06 02:55:26;;;;;;;10.90;8.57;;;;;;;9.97;100.00;100911.31;4947741;28;20048;-83
2023/05/06 02:57:53;;;;;;;10.40;8.43;;;;;;;9.95;100.00;100905.25;4934779;29;20047;-81
2023/05/06 03:00:20;;;;;;;8.43;7.30;;;;;;;9.93;100.00;100899.13;4932384;28;20044;-84
2023/05/06 03:02:46;;;;;;;10.95;8.63;;;;;;;9.91;100.00;100909.59;4941710;28;20043;-82
2023/05/06 03:05:13;;;;;;;7.60;6.82;;;;;;;9.88;100.00;100906.13;4928288;28;20064;-85
2023/05/06 03:07:39;;;;;;;13.57;9.93;;;;;;;9.86;100.00;100908.75;4944548;28;20039;-85
2023/05/06 03:10:06;;;;;;;15.23;10.90;;;;;;;9.84;100.00;100905.28;4936199;28;20059;-87
2023/05/06 03:12:33;;;;;;;11.95;8.80;;;;;;;9.81;100.00;100904.41;4933716;28;20058;-84
2023/05/06 03:14:59;;;;;;;11.75;9.65;;;;;;;9.79;100.00;100903.53;4938322;28;20111;-82
2023/05/06 03:17:26;;;;;;;12.02;8.65;;;;;;;9.74;100.00;100901.78;4951892;28;20518;-82
2023/05/06 03:19:52;;;;;;;14.98;11.60;;;;;;;9.75;100.00;100910.50;4922692;29;20094;-82
2023/05/06 03:22:18;;;;;;;12.57;10.23;;;;;;;9.70;100.00;100907.00;4943541;29;20102;-82
2023/05/06 03:24:45;;;;;;;10.23;8.45;;;;;;;9.64;100.00;100909.66;4935868;28;20047;-82
2023/05/06 03:27:12;;;;;;;12.48;10.75;;;;;;;9.63;100.00;100916.59;4938162;28;20133;-85
2023/05/06 03:29:38;;;;;;;14.98;10.85;;;;;;;9.62;100.00;100914.00;4968301;28;20039;-86
2023/05/06 03:32:05;;;;;;;12.40;10.48;;;;;;;9.58;100.00;100903.56;4952445;28;20054;-84
2023/05/06 03:34:32;;;;;;;12.00;10.00;;;;;;;9.57;100.00;100908.78;4941145;28;20054;-82
2023/05/06 03:36:59;;;;;;;10.82;9.18;;;;;;;9.55;100.00;100906.16;4945860;28;20066;-81
2023/05/06 03:39:25;;;;;;;12.60;9.95;;;;;;;9.61;100.00;100913.16;4941729;28;20066;-81
2023/05/06 03:41:52;;;;;;;17.90;12.18;;;;;;;9.74;100.00;100912.25;4940946;28;20050;-83
2023/05/06 03:44:18;;;;;;;12.32;10.05;;;;;;;9.87;100.00;100920.94;4948042;28;20043;-84
2023/05/06 03:46:45;;;;;;;14.25;10.30;;;;;;;10.01;100.00;100920.03;4935121;28;20038;-81
2023/05/06 03:49:11;;;;;;;13.65;10.32;;;;;;;10.12;100.00;100920.91;4943053;28;20055;-83
2023/05/06 03:51:38;;;;;;;11.85;9.50;;;;;;;10.22;100.00;100921.72;4944645;29;20390;-81
2023/05/06 03:54:04;;;;;;;13.23;10.15;;;;;;;10.32;100.00;100922.56;4937018;29;20474;-82
2023/05/06 03:56:31;;;;;;;11.98;9.77;;;;;;;10.42;100.00;100925.19;4940494;28;20051;-81
2023/05/06 03:58:57;;;;;;;12.55;10.63;;;;;;;10.50;100.00;100927.75;4926426;29;20043;-81
2023/05/06 04:01:24;;;;;;;14.45;11.15;;;;;;;10.55;100.00;100925.13;4954022;28;20044;-81
2023/05/06 04:03:51;;;;;;;13.93;11.18;;;;;;;10.61;100.00;100930.31;4961942;28;20791;-86
2023/05/06 04:06:17;;;;;;;16.00;11.38;;;;;;;10.65;100.00;100931.19;4945026;28;20412;-82
2023/05/06 04:08:43;;;;;;;13.85;11.85;;;;;;;10.69;100.00;100925.06;4943879;28;20059;-82
2023/05/06 04:11:13;;;;;;;16.85;10.43;;;;;;;10.70;100.00;100926.78;4945615;28;20390;-83
2023/05/06 04:13:40;;;;;;;14.80;11.30;;;;;;;10.72;100.00;100933.78;4959220;28;20046;-81
2023/05/06 04:16:06;;;;;;;14.02;10.35;;;;;;;10.73;100.00;100932.03;4922100;28;20055;-83
2023/05/06 04:18:33;;;;;;;14.48;11.18;;;;;;;10.73;100.00;100939.91;4942027;29;20099;-82
2023/05/06 04:21:00;;;;;;;12.15;10.02;;;;;;;10.73;100.00;100945.13;4943479;29;20146;-80
2023/05/06 04:23:26;;;;;;;14.43;10.65;;;;;;;10.78;100.00;100937.22;4940056;28;20039;-89
2023/05/06 04:25:53;;;;;;;14.18;11.18;;;;;;;10.81;100.00;100948.56;4918420;28;20094;-81
2023/05/06 04:28:20;;;;;;;14.05;11.27;;;;;;;10.79;100.00;100950.31;4929033;29;20104;-82
2023/05/06 04:30:47;;;;;;;13.38;9.95;;;;;;;10.83;100.00;100951.19;4915621;29;20043;-82
2023/05/06 04:33:13;;;;;;;14.07;10.00;;;;;;;10.83;100.00;100949.41;4925068;28;20439;-82
2023/05/06 04:35:41;;;;;;;13.98;9.93;;;;;;;10.83;100.00;100952.03;4931440;29;20063;-82
2023/05/06 04:38:08;;;;;;;11.10;9.13;;;;;;;10.82;100.00;100945.09;4956725;28;20394;-82
2023/05/06 04:40:38;;;;;;;11.02;9.70;;;;;;;10.85;100.00;100944.19;4942481;29;20071;-81
2023/05/06 04:43:05;;;;;;;11.88;9.70;;;;;;;10.83;100.00;100952.03;4935031;29;20095;-90
2023/05/06 04:45:33;;;;;;;13.25;10.60;;;;;;;10.80;100.00;100951.19;4918580;28;20370;-84
2023/05/06 04:47:59;;;;;;;14.50;11.18;;;;;;;10.79;100.00;100952.94;4951410;28;20561;-81
2023/05/06 04:50:26;;;;;;;12.15;9.30;;;;;;;10.80;100.00;100951.19;4920591;28;20072;-86
2023/05/06 04:52:52;;;;;;;11.68;9.52;;;;;;;10.81;100.00;100952.91;4933970;28;20191;-83
2023/05/06 04:55:19;;;;;;;12.00;9.85;;;;;;;10.80;100.00;100954.69;4949748;28;20602;-87
2023/05/06 04:57:45;;;;;;;14.18;9.85;;;;;;;10.82;100.00;100957.28;4943792;28;20047;-87
2023/05/06 05:00:13;;;;;;;12.88;9.90;;;;;;;10.82;100.00;100958.19;4934444;29;20418;-82
2023/05/06 05:02:40;;;;;;;12.75;10.48;;;;;;;10.83;100.00;100967.75;4945557;28;20047;-84
2023/05/06 05:05:07;;;;;;;11.45;10.00;;;;;;;10.88;100.00;100952.88;4914743;29;20119;-89
2023/05/06 05:07:33;;;;;;;12.70;10.13;;;;;;;10.90;100.00;100959.00;4937693;28;20046;-83
2023/05/06 05:10:00;;;;;;;11.75;10.20;;;;;;;10.96;100.00;100960.69;4954288;28;20054;-84
2023/05/06 05:12:26;;;;;;;11.88;8.85;;;;;;;11.03;100.00;100958.91;4929739;28;20043;-83
2023/05/06 05:14:53;;;;;;;13.88;9.40;;;;;;;11.05;100.00;100954.53;4956685;28;20039;-83
2023/05/06 05:17:21;;;;;;;12.85;11.23;;;;;;;10.97;100.00;100949.34;4923147;28;20051;-87
2023/05/06 05:19:47;;;;;;;13.77;10.82;;;;;;;10.82;100.00;100944.19;4938410;28;20056;-88
2023/05/06 05:22:14;;;;;;;14.00;10.55;;;;;;;10.71;100.00;100947.72;4956736;28;20100;-85
2023/05/06 05:24:41;;;;;;;17.67;10.68;;;;;;;10.61;100.00;100953.88;4943092;28;20035;-82
2023/05/06 05:27:07;;;;;;;10.93;9.65;;;;;;;10.58;100.00;100960.00;4936680;28;20087;-81
2023/05/06 05:29:34;;;;;;;16.55;12.70;;;;;;;10.56;100.00;100972.25;4919691;29;20376;-84
2023/05/06 05:32:01;;;;;;;14.13;10.70;;;;;;;10.56;100.00;100971.38;4946433;28;20122;-86
2023/05/06 05:34:27;;;;;;;18.23;12.00;;;;;;;10.60;100.00;100975.72;4929386;28;20039;-82
2023/05/06 05:36:54;;;;;;;13.68;11.43;;;;;;;10.58;100.00;100978.31;4930621;29;20399;-82
2023/05/06 05:39:20;;;;;;;13.00;10.88;;;;;;;10.63;100.00;100978.31;4960880;28;20055;-81
2023/05/06 05:41:47;;;;;;;15.85;12.63;;;;;;;10.72;100.00;100988.75;4944941;28;20145;-84
2023/05/06 05:44:13;;;;;;;14.13;11.45;;;;;;;10.75;100.00;100986.16;4940750;28;20440;-83
2023/05/06 05:46:41;;;;;;;15.45;11.73;;;;;;;10.85;100.00;100993.94;4937992;28;20043;-81
2023/05/06 05:49:07;;;;;;;14.75;12.20;;;;;;;11.08;100.00;100999.06;4935709;28;20459;-81
2023/05/06 05:51:34;;;;;;;14.00;12.02;;;;;;;11.28;100.00;100998.94;4932972;28;20043;-83
2023/05/06 05:54:00;;;;;;;13.63;11.52;;;;;;;11.47;100.00;100993.56;4930509;28;20049;-86
2023/05/06 05:56:27;;;;;;;14.57;11.30;;;;;;;11.64;100.00;100996.06;4925661;28;20086;-84
2023/05/06 05:58:53;;;;;;;15.32;12.25;;;;;;;11.78;100.00;100993.34;4914628;29;20051;-81
2023/05/06 06:01:20;;;;;;;13.90;11.13;;;;;;;11.86;100.00;100994.13;4946689;28;20139;-84
2023/05/06 06:03:47;;;;;;;15.00;11.02;;;;;;;11.92;100.00;100992.31;4935480;28;20046;-82
2023/05/06 06:06:13;;;;;;;13.23;11.05;;;;;;;11.96;100.00;100982.72;4941673;28;20494;-82
2023/05/06 06:08:40;;;;;;;13.18;11.70;;;;;;;11.97;100.00;100987.09;4942610;28;20115;-81
2023/05/06 06:11:06;;;;;;;13.60;11.63;;;;;;;12.00;100.00;100994.06;4936272;28;20558;-84
2023/05/06 06:13:33;;;;;;;13.43;11.32;;;;;;;12.08;100.00;100998.34;4942035;28;20114;-81
2023/05/06 06:16:00;;;;;;;14.32;11.90;;;;;;;12.13;100.00;101006.16;4936918;29;20046;-82
2023/05/06 06:18:26;;;;;;;15.32;12.13;;;;;;;12.25;100.00;101005.19;4954481;28;20075;-81
2023/05/06 06:20:53;;;;;;;14.43;12.02;;;;;;;12.29;100.00;101001.63;4940529;29;20070;-84
2023/05/06 06:23:19;;;;;;;14.32;11.13;;;;;;;12.46;100.00;101009.31;4936384;28;20052;-82
2023/05/06 06:25:46;;;;;;;14.88;11.52;;;;;;;12.58;100.00;101005.72;4918909;29;20051;-81
2023/05/06 06:28:13;;;;;;;13.38;10.82;;;;;;;12.70;100.00;101021.31;4938440;28;20052;-81
2023/05/06 06:30:41;;;;;;;13.25;10.57;;;;;;;12.76;100.00;101014.25;4947527;28;20032;-83
2023/05/06 06:33:07;;;;;;;13.23;10.35;;;;;;;12.85;100.00;101011.50;4932221;28;20052;-81
2023/05/06 06:35:34;;;;;;;12.27;10.93;;;;;;;12.93;100.00;101012.25;4919170;29;20071;-81
2023/05/06 06:38:01;;;;;;;13.98;11.05;;;;;;;12.99;100.00;101011.34;4915427;29;20043;-83
2023/05/06 06:40:28;;;;;;;13.60;11.63;;;;;;;13.02;100.00;101012.16;4949250;28;20070;-81
2023/05/06 06:42:54;;;;;;;14.48;10.88;;;;;;;13.09;100.00;101020.84;4940207;29;20505;-84
2023/05/06 06:45:22;;;;;;;13.77;10.85;;;;;;;13.15;100.00;101028.63;4921815;28;20482;-82
2023/05/06 06:47:50;;;;;;;13.23;10.88;;;;;;;13.22;100.00;101025.03;4922383;28;20039;-82
2023/05/06 06:50:17;;;;;;;20.10;10.30;;;;;;;13.33;100.00;101031.91;4928260;28;20048;-81
2023/05/06 06:52:44;;;;;;;12.05;9.98;;;;;;;13.47;100.00;101032.59;4931668;29;20047;-82
2023/05/06 06:55:11;;;;;;;11.70;9.18;;;;;;;13.51;100.00;101038.69;4940340;28;20098;-82
2023/05/06 06:57:40;;;;;;;16.50;8.50;;;;;;;13.57;100.00;101034.19;4939080;29;20058;-84
2023/05/06 07:00:07;;;;;;;13.65;10.85;;;;;;;13.59;100.00;101028.91;4937320;28;20047;-81
2023/05/06 07:02:34;;;;;;;12.65;10.38;;;;;;;13.55;100.00;101040.38;4929664;29;20110;-83
2023/05/06 07:05:01;;;;;;;11.55;10.35;;;;;;;13.82;100.00;101031.19;4943668;28;20047;-82
2023/05/06 07:07:27;;;;;;;11.80;10.40;;;;;;;14.25;100.00;101039.22;4926204;29;20044;-81
2023/05/06 07:09:54;;;;;;;11.00;9.85;;;;;;;14.52;100.00;101035.19;4938738;28;20051;-81
2023/05/06 07:12:23;;;;;;;12.07;9.80;;;;;;;14.67;98.40;101037.56;4939216;29;20044;-83
2023/05/06 07:14:50;;;;;;;10.20;8.98;;;;;;;14.60;97.67;101042.97;4950638;28;20073;-81
2023/05/06 07:17:16;;;;;;;12.30;9.52;;;;;;;14.54;97.67;101043.97;4935715;29;20098;-82
2023/05/06 07:25:49;;;;;;;8.80;7.90;;;;;;;14.75;96.05;101041.84;6084235;23;20029;-81
2023/05/06 07:28:16;;;;;;;9.57;8.30;;;;;;;14.78;95.34;101050.53;4945820;28;20062;-81
2023/05/06 07:30:42;;;;;;;10.48;9.38;;;;;;;14.82;95.43;101046.97;4962343;28;20086;-81
2023/05/06 07:34:19;;;;;;;12.55;9.43;;;;;;;14.77;94.75;101054.09;4943090;29;20055;-81
2023/05/06 07:36:46;;;;;;;10.10;8.95;;;;;;;14.94;94.35;101056.38;4959054;29;20043;-82
2023/05/06 07:39:14;;;;;;;9.57;8.25;;;;;;;15.18;93.47;101059.38;4954934;28;20042;-85
2023/05/06 07:42:11;;;;;;;12.32;9.90;;;;;;;15.82;89.88;101056.22;4960907;28;20449;-82
2023/05/06 07:44:40;;;;;;;9.90;8.82;;;;;;;16.89;85.66;101059.53;4960903;28;20452;-83
2023/05/06 07:47:06;;;;;;;9.10;8.20;;;;;;;17.55;79.95;101066.44;4986364;28;20046;-83
2023/05/06 07:49:33;;;;;;;8.77;7.93;;;;;;;17.78;80.64;101061.28;4965114;28;20042;-83
2023/05/06 07:52:00;;;;;;;8.63;7.50;;;;;;;17.62;80.57;101060.03;4957396;28;20049;-83
2023/05/06 07:54:27;;;;;;;12.30;8.70;;;;;;;17.28;79.36;101064.59;4960454;28;20060;-82
2023/05/06 07:56:54;;;;;;;10.77;8.27;;;;;;;16.91;81.45;101064.81;4988437;28;20046;-83
2023/05/06 07:59:21;;;;;;;9.52;8.52;;;;;;;16.62;83.23;101072.63;4956491;28;20105;-82
2023/05/06 08:01:47;;;;;;;12.50;9.48;;;;;;;17.13;81.36;101071.22;4946530;28;20180;-85
2023/05/06 08:04:14;;;;;;;10.95;8.82;;;;;;;17.09;81.58;101066.94;4959534;28;20043;-84
2023/05/06 08:06:41;;;;;;;8.38;7.57;;;;;;;17.10;81.47;101068.66;4957141;28;20043;-83
2023/05/06 08:09:07;;;;;;;10.75;8.75;;;;;;;17.16;79.77;101078.19;4942860;28;20105;-86
2023/05/06 08:11:34;;;;;;;8.77;7.88;;;;;;;17.43;78.27;101072.97;4961581;28;20047;-86
2023/05/06 08:14:01;;;;;;;9.27;7.60;;;;;;;18.65;75.27;101074.25;4941734;28;20043;-90
2023/05/06 08:16:27;;;;;;;9.77;8.93;;;;;;;20.20;68.90;101079.78;4961559;28;20128;-87
2023/05/06 08:18:54;;;;;;;8.93;8.02;;;;;;;19.95;68.43;101083.47;5034821;23;20454;-83
2023/05/06 08:21:20;;;;;;;8.38;7.55;;;;;;;19.42;69.40;101082.00;4903907;29;20411;-82
2023/05/06 08:23:47;;;;;;;6.40;5.80;;;;;;;19.32;70.52;101080.63;4900472;29;20040;-83
2023/05/06 08:26:13;;;;;;;7.28;6.60;;;;;;;19.27;70.12;101086.16;4910980;29;20040;-82
2023/05/06 08:28:40;;;;;;;8.18;7.30;;;;;;;19.28;70.27;101095.84;4902007;29;20046;-83
2023/05/06 08:31:06;;;;;;;7.90;6.93;;;;;;;19.10;70.52;101089.44;4895391;29;20048;-82
2023/05/06 08:33:33;;;;;;;7.40;6.70;;;;;;;18.80;70.88;101094.94;4899207;29;20087;-88
2023/05/06 08:35:59;;;;;;;7.70;7.00;;;;;;;18.22;72.76;101100.47;4888727;29;20060;-84
2023/05/06 08:38:26;;;;;;;8.82;7.55;;;;;;;17.62;73.95;101105.03;4883999;29;20147;-81
2023/05/06 08:40:54;;;;;;;8.77;7.97;;;;;;;17.32;76.70;101108.56;4889219;29;20059;-82
2023/05/06 08:43:22;;;;;;;7.22;6.53;;;;;;;17.27;77.97;101097.25;4886002;29;20063;-83
2023/05/06 08:45:49;;;;;;;8.48;6.93;;;;;;;17.31;76.97;101103.31;4902436;29;20044;-82
2023/05/06 08:48:15;;;;;;;8.77;7.22;;;;;;;17.82;74.94;101110.56;4907337;29;20107;-83
2023/05/06 08:50:43;;;;;;;7.00;6.30;;;;;;;19.21;70.33;101099.63;4886618;29;20076;-85
2023/05/06 08:53:13;;;;;;;8.60;7.13;;;;;;;20.26;64.93;101097.25;4885602;29;20451;-86
2023/05/06 08:55:44;;;;;;;6.97;6.18;;;;;;;20.32;63.45;101104.97;4904485;29;20047;-83
2023/05/06 08:58:14;;;;;;;8.25;7.45;;;;;;;20.46;63.30;101112.38;4900823;29;20050;-81
2023/05/06 09:00:42;;;;;;;7.55;6.85;;;;;;;20.06;64.70;101106.94;4901633;29;20143;-83
2023/05/06 09:03:09;;;;;;;10.55;7.63;;;;;;;20.11;64.52;101112.06;4891519;29;20052;-82
2023/05/06 09:05:37;;;;;;;7.90;7.10;;;;;;;20.09;64.74;101109.47;4908155;29;20090;-82
2023/05/06 09:08:04;;;;;;;7.05;6.28;;;;;;;20.31;64.15;101111.22;4909078;29;20044;-84
2023/05/06 09:10:42;;;;;;;7.68;6.30;;;;;;;20.17;63.46;101106.50;4889822;29;20048;-81
2023/05/06 09:13:13;;;;;;;6.63;6.03;;;;;;;19.69;65.41;101110.22;4915912;29;20040;-82
2023/05/06 09:15:47;;;;;;;6.95;6.25;;;;;;;19.29;66.54;101112.63;4901746;29;20044;-83
2023/05/06 09:20:49;;;;;;;8.43;6.75;;;;;;;19.48;65.85;101115.44;5020799;23;20055;-86
2023/05/06 09:23:18;;;;;;;8.38;7.00;;;;;;;19.93;64.51;101119.88;4937389;29;20043;-82
2023/05/06 09:26:01;;;;;;;8.32;7.15;;;;;;;19.95;64.32;101112.69;4931787;29;20051;-83
2023/05/06 09:28:32;;;;;;;10.35;8.02;;;;;;;19.74;64.18;101110.91;4913396;29;20062;-82
2023/05/06 09:30:59;;;;;;;8.20;7.28;;;;;;;19.28;65.65;101108.22;4908687;29;20059;-85
2023/05/06 09:33:27;;;;;;;8.55;7.75;;;;;;;18.84;67.09;101111.59;4914183;29;20056;-81
2023/05/06 09:35:54;;;;;;;6.85;6.15;;;;;;;18.32;69.20;101119.59;4932980;29;20107;-81
2023/05/06 09:38:21;;;;;;;7.68;6.93;;;;;;;18.01;71.19;101120.59;4930990;29;20503;-81
2023/05/06 09:40:47;;;;;;;11.85;8.35;;;;;;;17.79;72.57;101123.91;4937424;29;20047;-83
2023/05/06 09:43:15;;;;;;;8.95;7.85;;;;;;;17.80;72.42;101124.78;4914844;29;20063;-82
2023/05/06 09:45:42;;;;;;;9.20;8.20;;;;;;;17.82;72.34;101120.28;4932199;29;20039;-83
2023/05/06 09:48:08;;;;;;;8.80;7.43;;;;;;;17.83;72.04;101124.66;4938082;29;20789;-82
2023/05/06 09:50:35;;;;;;;9.55;8.40;;;;;;;17.79;71.85;101131.84;4912871;29;20486;-88
2023/05/06 09:53:06;;;;;;;9.98;8.57;;;;;;;17.89;71.83;101128.94;4935401;29;20044;-83
2023/05/06 09:55:33;;;;;;;10.70;8.88;;;;;;;18.75;69.23;101123.41;4929403;29;20142;-91
2023/05/06 09:58:02;;;;;;;8.73;7.93;;;;;;;19.25;66.43;101118.97;4919219;29;20063;-85
2023/05/06 10:00:31;;;;;;;11.85;8.48;;;;;;;19.17;66.70;101124.56;4924106;29;20372;-84
2023/05/06 10:02:58;;;;;;;9.68;7.63;;;;;;;19.13;66.75;101122.97;4902694;29;20095;-81
2023/05/06 10:05:27;;;;;;;8.32;7.07;;;;;;;19.40;66.00;101123.72;4926132;29;20048;-81
2023/05/06 10:07:55;;;;;;;7.97;7.28;;;;;;;19.85;64.37;101121.97;4932050;29;20047;-82
2023/05/06 10:10:22;;;;;;;10.77;9.27;;;;;;;20.00;63.84;101128.47;4930044;29;20048;-85
2023/05/06 10:12:51;;;;;;;10.13;8.90;;;;;;;20.05;63.92;101122.94;4918494;29;20048;-83
2023/05/06 10:15:18;;;;;;;10.75;8.15;;;;;;;20.08;62.97;101128.16;4936481;29;20039;-88
2023/05/06 10:17:47;;;;;;;9.80;8.13;;;;;;;20.37;62.68;101121.59;4939862;29;20076;-82
2023/05/06 10:20:16;;;;;;;10.35;9.15;;;;;;;20.48;63.21;101121.13;4943117;28;20061;-86
2023/05/06 10:23:22;;;;;;;8.45;7.10;;;;;;;20.60;60.32;101120.63;4932708;29;20573;-82
2023/05/06 10:25:54;;;;;;;9.68;8.55;;;;;;;20.42;61.67;101121.41;4946687;29;20047;-81
2023/05/06 10:28:22;;;;;;;11.10;9.32;;;;;;;20.59;62.29;101116.22;4935507;29;20047;-82
2023/05/06 10:30:51;;;;;;;10.13;8.38;;;;;;;20.67;61.71;101121.22;4955625;29;20043;-84
2023/05/06 10:33:18;;;;;;;10.13;9.15;;;;;;;20.86;61.06;101115.97;4956615;29;20131;-81
2023/05/06 10:35:55;;;;;;;8.85;7.55;;;;;;;21.11;59.44;101113.06;4957207;29;20050;-81
2023/05/06 10:38:28;;;;;;;12.90;9.60;;;;;;;21.24;57.86;101107.19;4958373;28;20051;-83
2023/05/06 10:40:55;;;;;;;13.35;7.97;;;;;;;21.43;57.35;101113.38;4957983;28;20111;-84
2023/05/06 10:43:31;;;;;;;11.35;9.60;;;;;;;22.14;55.17;101109.94;4972688;28;20058;-91
2023/05/06 10:46:17;;;;;;;10.93;8.70;;;;;;;22.78;51.15;101110.25;4957020;28;20417;-85
2023/05/06 10:49:07;;;;;;;8.30;7.45;;;;;;;22.30;50.35;101110.03;4954734;28;20434;-85
2023/05/06 10:51:42;;;;;;;7.97;7.22;;;;;;;22.31;51.14;101105.56;4955674;29;20504;-88
2023/05/06 10:54:13;;;;;;;8.65;7.85;;;;;;;22.62;50.21;101102.22;4953848;29;20481;-81
2023/05/06 10:57:10;;;;;;;10.40;8.18;;;;;;;23.11;48.45;101104.06;4950968;29;20043;-82
2023/05/06 10:59:37;;;;;;;9.75;8.80;;;;;;;23.93;46.55;101107.53;4930718;29;20478;-83
2023/05/06 11:02:04;;;;;;;12.00;9.18;;;;;;;24.45;45.44;101106.28;4937017;29;20043;-86
2023/05/06 11:04:33;;;;;;;11.32;10.07;;;;;;;24.31;45.42;101114.25;4935132;29;20055;-82
2023/05/06 11:07:10;;;;;;;12.35;9.68;;;;;;;24.59;43.52;101104.59;4935413;28;20427;-90
2023/05/06 11:10:06;;;;;;;13.15;9.88;;;;;;;23.84;44.95;101104.53;4951702;28;20047;-82
2023/05/06 11:12:50;;;;;;;11.07;9.90;;;;;;;23.17;46.69;101112.72;4955892;28;20051;-85
2023/05/06 11:15:24;;;;;;;13.40;10.27;;;;;;;23.35;47.02;101117.03;4943604;29;20139;-88
2023/05/06 11:17:51;;;;;;;10.40;9.40;;;;;;;24.66;45.33;101105.13;4940199;29;20047;-80
2023/05/06 11:20:22;;;;;;;10.43;9.35;;;;;;;26.82;38.85;101100.91;4996140;23;20051;-82
2023/05/06 11:22:49;;;;;;;7.82;7.10;;;;;;;26.57;40.06;101108.81;4947960;29;20069;-82
2023/05/06 11:25:40;;;;;;;8.52;7.63;;;;;;;26.68;37.95;101104.53;4948356;29;20040;-84
2023/05/06 11:28:09;;;;;;;7.72;6.93;;;;;;;28.19;37.51;101104.38;4952574;29;20122;-81